Time;durP1;ratioP1;P1;durP2;ratioP2;P2;SDS_P1;SDS_P2;PMS_P1;PMS_P2;Temp;Humidity;BMP_temperature;BMP_pressure;BME280_temperature;BME280_humidity;BME280_pressure;Samples;Min_cycle;Max_cycle;Signal;HPM_P1;HPM_P2
2023/07/18 09:00:44;;;;;;;751.80;688.33;;;;;;;24.28;46.96;96915.03;2091865;27;20579;-60
2023/07/18 09:03:02;;;;;;;749.10;688.03;;;;;;;25.14;45.18;96909.44;2093398;28;21054;-60
2023/07/18 09:05:31;;;;;;;898.45;823.35;;;;;;;25.06;44.45;96905.69;2085084;28;20563;-60
2023/07/18 09:07:44;;;;;;;637.72;582.88;;;;;;;24.68;46.42;96904.16;2096129;27;20917;-60
2023/07/18 09:10:00;;;;;;;764.75;702.67;;;;;;;25.27;44.72;96897.34;2101381;27;20548;-60
2023/07/18 09:12:17;;;;;;;786.80;722.85;;;;;;;25.02;45.42;96903.50;2082713;28;20561;-60
2023/07/18 09:14:39;;;;;;;675.47;616.35;;;;;;;24.98;46.02;96902.13;2083387;28;20569;-60
2023/07/18 09:17:07;;;;;;;700.35;642.50;;;;;;;24.80;45.91;96896.75;2088231;28;20563;-60
2023/07/18 09:19:43;;;;;;;729.60;669.45;;;;;;;24.59;45.77;96893.38;2081658;28;20570;-60
2023/07/18 09:20:44;;;;;;;680.10;621.33;;;;;;;24.87;46.20;96900.50;2084054;28;20232;-60
2023/07/18 09:23:04;;;;;;;645.05;589.20;;;;;;;25.12;45.19;96895.41;2099029;27;20564;-60
2023/07/18 09:24:06;;;;;;;570.45;518.53;;;;;;;24.76;45.97;96901.59;2098893;28;20325;-60
2023/07/18 09:25:08;;;;;;;693.08;636.03;;;;;;;25.22;45.02;96896.16;2097580;28;20300;-60
2023/07/18 09:27:35;;;;;;;658.75;601.28;;;;;;;25.57;44.12;96883.72;2092617;27;20826;-60
2023/07/18 09:28:37;;;;;;;636.53;581.67;;;;;;;25.53;45.05;96885.88;2089714;28;20196;-60
2023/07/18 09:29:46;;;;;;;585.25;532.83;;;;;;;25.81;44.94;96896.41;2090906;28;20203;-60
2023/07/18 09:30:47;;;;;;;647.60;593.33;;;;;;;26.34;43.99;96891.84;2091282;28;20242;-60
2023/07/18 09:31:49;;;;;;;679.88;619.60;;;;;;;26.16;43.13;96886.59;2090720;28;20201;-60
2023/07/18 09:32:52;;;;;;;599.05;544.60;;;;;;;25.78;43.95;96887.88;2085022;28;20722;-60
2023/07/18 09:33:54;;;;;;;563.83;510.55;;;;;;;25.53;44.37;96883.19;2082997;28;20201;-60
2023/07/18 09:34:59;;;;;;;604.40;548.75;;;;;;;25.77;44.13;96891.56;2083779;28;20556;-60
2023/07/18 09:36:02;;;;;;;693.22;633.33;;;;;;;25.94;43.22;96882.63;2080783;28;20212;-60
2023/07/18 09:37:05;;;;;;;620.40;563.53;;;;;;;26.22;43.29;96887.78;2079470;28;20193;-60
2023/07/18 09:38:07;;;;;;;653.42;596.25;;;;;;;26.48;42.75;96897.59;2078821;28;20213;-60
2023/07/18 09:39:09;;;;;;;648.25;590.75;;;;;;;26.32;43.13;96898.34;2082800;28;20193;-60
2023/07/18 09:40:13;;;;;;;480.52;432.10;;;;;;;26.03;43.19;96902.22;2081906;28;20209;-60
2023/07/18 09:41:16;;;;;;;609.90;549.90;;;;;;;26.03;43.88;96894.19;2081907;28;20251;-60
2023/07/18 09:42:18;;;;;;;760.15;694.20;;;;;;;25.95;43.75;96908.34;2096596;28;20245;-60
2023/07/18 09:43:21;;;;;;;421.67;367.25;;;;;;;26.06;43.15;96892.06;2096856;28;20286;-60
2023/07/18 09:44:25;;;;;;;454.08;405.52;;;;;;;26.19;43.02;96890.78;2083262;28;20197;-60
2023/07/18 09:45:35;;;;;;;2250.00;999.90;;;;;;;26.35;42.53;96898.88;2085210;28;20196;-60
2023/07/18 09:46:37;;;;;;;457.92;408.45;;;;;;;26.54;42.76;96896.94;2083190;28;20243;-60
2023/07/18 09:47:41;;;;;;;2250.00;999.90;;;;;;;26.26;43.09;96894.50;2081343;28;20316;-60
2023/07/18 09:48:45;;;;;;;2250.00;999.90;;;;;;;26.20;42.60;96898.66;2079040;28;20210;-60
2023/07/18 09:49:50;;;;;;;2250.00;999.90;;;;;;;26.12;43.40;96906.66;2081980;28;20241;-60
2023/07/18 09:50:55;;;;;;;2250.00;999.90;;;;;;;26.07;43.46;96919.66;2078917;28;20197;-60
2023/07/18 09:52:02;;;;;;;2250.00;999.90;;;;;;;26.18;43.66;96924.75;2079064;28;20563;-60
2023/07/18 09:53:11;;;;;;;2250.00;999.90;;;;;;;26.61;42.72;96940.78;2078475;28;20253;-60
2023/07/18 09:54:14;;;;;;;2250.00;999.90;;;;;;;26.72;42.72;96947.69;2080019;28;20201;-60
2023/07/18 09:55:24;;;;;;;2250.00;999.90;;;;;;;26.47;42.79;96960.97;2078708;28;20212;-60
2023/07/18 09:56:27;;;;;;;2250.00;999.90;;;;;;;26.03;43.06;96971.75;2079396;28;20827;-60
2023/07/18 09:57:29;;;;;;;2250.00;999.90;;;;;;;26.21;43.49;96977.09;2081843;28;20217;-60
2023/07/18 09:58:36;;;;;;;2250.00;999.90;;;;;;;25.83;43.35;96989.88;2082725;28;20275;-60
2023/07/18 09:59:39;;;;;;;2250.00;999.90;;;;;;;25.65;44.00;96987.22;2082116;28;20807;-60
2023/07/18 10:00:43;;;;;;;2250.00;999.90;;;;;;;25.65;44.26;96985.41;2082445;28;20219;-60
2023/07/18 10:01:51;;;;;;;2250.00;999.90;;;;;;;25.42;45.07;96982.38;2083761;28;20201;-60
2023/07/18 10:02:54;;;;;;;2250.00;999.90;;;;;;;25.21;45.09;96972.78;2082073;28;20751;-60
2023/07/18 10:03:57;;;;;;;1326.60;702.97;;;;;;;25.00;45.67;96981.13;2081161;28;20205;-60
2023/07/18 10:05:02;;;;;;;2250.00;999.90;;;;;;;24.60;45.95;96977.78;2082380;28;20233;-60
2023/07/18 10:06:06;;;;;;;2250.00;999.90;;;;;;;24.35;46.32;96957.13;2082925;28;20249;-60
2023/07/18 10:07:11;;;;;;;497.50;449.25;;;;;;;24.43;46.53;96955.41;2081581;28;20201;-60
2023/07/18 10:08:13;;;;;;;2250.00;999.90;;;;;;;24.51;46.99;96946.66;2084321;28;20209;-60
2023/07/18 10:09:16;;;;;;;1304.18;682.10;;;;;;;24.46;47.02;96955.09;2082258;28;20340;-60
2023/07/18 10:10:18;;;;;;;2250.00;999.90;;;;;;;24.47;46.83;96947.94;2082662;28;20234;-60
2023/07/18 10:11:20;;;;;;;1300.88;679.75;;;;;;;24.37;47.00;96933.81;2082177;28;20196;-60
2023/07/18 10:12:22;;;;;;;2250.00;999.90;;;;;;;24.31;46.88;96911.22;2081378;28;20196;-59
2023/07/18 10:13:23;;;;;;;2250.00;999.90;;;;;;;24.27;46.74;96892.00;2079615;28;21008;-59
2023/07/18 10:14:46;;;;;;;1329.63;705.88;;;;;;;24.16;47.63;96873.53;2079601;28;20197;-59
2023/07/18 10:16:27;;;;;;;397.27;348.67;;;;;;;24.35;47.84;96895.75;2080286;28;20205;-59
2023/07/18 10:17:41;;;;;;;418.88;375.42;;;;;;;24.32;47.99;96898.75;2060509;28;20225;-59
2023/07/18 10:27:44;;;;;;;2250.00;999.90;;;;;;;23.42;50.09;96617.56;2083141;28;20572;-58
2023/07/18 10:28:47;;;;;;;2250.00;999.90;;;;;;;23.66;50.30;96591.34;2083389;28;20196;-59
2023/07/18 10:30:03;;;;;;;2250.00;999.90;;;;;;;23.90;49.56;96591.56;2082504;28;20278;-59
2023/07/18 10:31:05;;;;;;;2250.00;999.90;;;;;;;24.13;49.49;96607.13;2082332;28;20671;-59
2023/07/18 10:32:10;;;;;;;2250.00;999.90;;;;;;;24.37;49.34;96613.63;2081115;28;20204;-59
2023/07/18 10:33:12;;;;;;;2250.00;999.90;;;;;;;24.48;49.09;96625.88;2079018;28;20197;-59
2023/07/18 10:34:15;;;;;;;2250.00;999.90;;;;;;;24.76;48.37;96639.94;2080575;28;20200;-59
2023/07/18 10:35:20;;;;;;;1476.05;841.97;;;;;;;24.90;48.18;96658.03;2081343;28;20280;-59
2023/07/18 10:36:25;;;;;;;406.17;363.95;;;;;;;25.38;47.27;96676.31;2082056;28;20197;-60
2023/07/18 10:37:30;;;;;;;441.45;397.80;;;;;;;25.66;47.04;96703.69;2081583;28;20222;-59
2023/07/18 10:38:35;;;;;;;449.38;403.88;;;;;;;25.85;45.86;96721.28;2082898;28;20586;-59
2023/07/18 10:39:38;;;;;;;519.83;470.65;;;;;;;26.40;45.87;96735.94;2078949;28;20193;-59
2023/07/18 10:40:45;;;;;;;392.50;336.48;;;;;;;26.50;44.53;96740.28;2080561;28;20197;-60
2023/07/18 10:41:46;;;;;;;333.05;279.40;;;;;;;26.65;44.25;96748.50;2081607;28;20255;-59
2023/07/18 10:42:48;;;;;;;1353.13;728.50;;;;;;;26.87;44.21;96760.44;2078290;28;20499;-59
2023/07/18 10:43:49;;;;;;;531.58;481.83;;;;;;;26.92;44.00;96760.75;2079711;28;20193;-60
2023/07/18 10:45:05;;;;;;;471.08;425.55;;;;;;;26.95;44.76;96772.97;2080733;28;20204;-59
2023/07/18 10:46:07;;;;;;;1365.75;741.53;;;;;;;26.97;44.95;96795.06;2081004;28;20228;-60
2023/07/18 10:47:16;;;;;;;559.97;508.50;;;;;;;26.95;44.71;96805.94;2081976;28;20220;-60
2023/07/18 10:48:19;;;;;;;501.85;451.25;;;;;;;27.19;44.47;96831.06;2083196;28;20239;-60
2023/07/18 10:49:25;;;;;;;2250.00;999.90;;;;;;;27.36;43.15;96843.44;2083023;28;20201;-60
2023/07/18 10:50:27;;;;;;;2250.00;999.90;;;;;;;27.56;42.94;96848.47;2078877;28;20643;-60
2023/07/18 10:51:32;;;;;;;2250.00;999.90;;;;;;;27.80;42.26;96852.09;2081575;28;20232;-60
2023/07/18 10:52:34;;;;;;;2250.00;999.90;;;;;;;28.09;43.30;96856.88;2081096;28;20936;-60
2023/07/18 10:53:36;;;;;;;2250.00;999.90;;;;;;;28.08;42.24;96860.56;2082014;28;20193;-60
2023/07/18 10:54:44;;;;;;;2250.00;999.90;;;;;;;28.43;42.31;96881.72;2081877;28;20311;-60
2023/07/18 10:55:46;;;;;;;2250.00;999.90;;;;;;;28.23;41.45;96903.63;2081754;28;20283;-60
2023/07/18 10:56:48;;;;;;;2250.00;999.90;;;;;;;28.08;41.01;96926.84;2081220;28;20819;-60
2023/07/18 10:57:53;;;;;;;2250.00;999.90;;;;;;;27.60;43.47;96934.78;2080635;28;20772;-60
2023/07/18 10:58:55;;;;;;;2250.00;999.90;;;;;;;27.47;42.41;96944.16;2076019;28;20772;-60
2023/07/18 10:59:59;;;;;;;2250.00;999.90;;;;;;;27.10;43.09;96944.63;2075188;28;20279;-60
2023/07/18 11:01:00;;;;;;;2250.00;999.90;;;;;;;26.40;43.44;96941.22;2078906;28;20523;-59
2023/07/18 11:02:03;;;;;;;2250.00;999.90;;;;;;;25.99;44.40;96940.97;2082013;28;20254;-59
2023/07/18 11:03:05;;;;;;;2250.00;999.90;;;;;;;25.98;44.58;96937.47;2081517;28;20856;-60
2023/07/18 11:04:07;;;;;;;2250.00;999.90;;;;;;;26.07;45.32;96935.72;2082235;28;20288;-60
2023/07/18 11:05:11;;;;;;;2250.00;999.90;;;;;;;25.72;45.32;96926.78;2081983;28;20592;-60
2023/07/18 11:06:14;;;;;;;2250.00;999.90;;;;;;;25.62;45.74;96918.03;2078933;28;20204;-60
2023/07/18 11:07:16;;;;;;;2250.00;999.90;;;;;;;25.66;45.65;96914.03;2080885;28;20209;-62
2023/07/18 11:08:28;;;;;;;2250.00;999.90;;;;;;;25.68;45.27;96917.41;2081609;28;20194;-59
2023/07/18 11:09:31;;;;;;;1289.80;669.35;;;;;;;25.66;46.34;96906.88;2081877;28;20272;-59
2023/07/18 11:10:33;;;;;;;426.23;382.83;;;;;;;25.29;46.93;96907.06;2085039;28;20205;-60
2023/07/18 11:11:37;;;;;;;393.60;351.75;;;;;;;25.14;46.87;96901.41;2082961;28;20212;-60
2023/07/18 11:12:40;;;;;;;2250.00;999.90;;;;;;;25.12;46.46;96906.91;2080050;28;20261;-59
2023/07/18 11:13:43;;;;;;;1330.10;707.03;;;;;;;24.93;46.55;96895.41;2081825;28;20196;-59
2023/07/18 11:14:46;;;;;;;1326.20;703.35;;;;;;;24.71;47.00;96890.50;2081898;28;20197;-59
2023/07/18 11:15:47;;;;;;;2250.00;999.90;;;;;;;24.60;47.58;96907.56;2081004;28;20201;-59
2023/07/18 11:42:08;;;;;;;2250.00;999.90;;;;;;;23.13;52.42;96820.97;2090939;28;20891;-59
2023/07/18 11:44:42;;;;;;;833.40;750.85;;;;;;;23.41;52.58;96818.38;2082701;28;20659;-59
2023/07/18 11:45:43;;;;;;;1011.58;910.47;;;;;;;23.43;52.25;96823.56;2082440;28;20192;-60
2023/07/18 11:46:45;;;;;;;1034.07;928.15;;;;;;;23.48;51.83;96816.81;2083111;28;20235;-60
2023/07/18 11:47:55;;;;;;;904.97;820.63;;;;;;;23.70;52.00;96824.59;2080553;28;20228;-60
2023/07/18 11:48:56;;;;;;;1074.90;967.28;;;;;;;23.63;51.29;96819.03;2077494;28;20200;-60
2023/07/18 11:50:00;;;;;;;938.15;846.20;;;;;;;23.65;52.33;96814.38;2070864;28;20268;-60
2023/07/18 11:51:05;;;;;;;1072.95;956.72;;;;;;;23.68;51.19;96816.75;2071913;28;20328;-60
2023/07/18 11:52:08;;;;;;;1026.90;922.85;;;;;;;23.71;51.18;96795.13;2074108;28;20255;-60
2023/07/18 11:53:10;;;;;;;1059.93;950.10;;;;;;;23.91;51.34;96795.91;2070618;28;20217;-60
2023/07/18 11:54:12;;;;;;;1067.35;955.78;;;;;;;23.83;51.52;96785.09;2071008;28;20201;-60
2023/07/18 11:55:16;;;;;;;1499.95;843.33;;;;;;;24.02;50.95;96772.69;2070919;28;20232;-62
2023/07/18 11:56:17;;;;;;;1019.00;912.08;;;;;;;24.15;50.95;96767.84;2071879;28;20798;-62
2023/07/18 11:57:18;;;;;;;1073.50;968.72;;;;;;;24.23;51.17;96757.25;2073010;28;21003;-62
2023/07/18 11:58:20;;;;;;;1038.53;927.78;;;;;;;24.27;51.18;96742.59;2073590;28;20744;-62
2023/07/18 11:59:22;;;;;;;890.10;721.95;;;;;;;24.20;51.19;96730.03;2073284;28;20201;-62
2023/07/18 12:00:23;;;;;;;859.05;708.25;;;;;;;24.05;51.13;96719.03;2073561;28;20202;-62
2023/07/18 12:01:25;;;;;;;1225.88;778.45;;;;;;;24.00;51.43;96713.31;2073927;28;20211;-62
2023/07/18 12:02:26;;;;;;;1042.53;939.95;;;;;;;24.11;51.96;96719.28;2073293;28;20208;-62
2023/07/18 12:03:28;;;;;;;1098.97;982.33;;;;;;;24.13;50.65;96719.13;2074611;28;20281;-62
2023/07/18 12:04:31;;;;;;;706.80;465.52;;;;;;;23.92;50.77;96714.94;2070802;28;20237;-62
2023/07/18 12:05:32;;;;;;;877.30;748.53;;;;;;;24.09;51.12;96701.75;2077194;28;20193;-62
2023/07/18 12:06:34;;;;;;;903.17;776.15;;;;;;;23.92;51.23;96698.94;2070931;28;20209;-62
2023/07/18 12:07:36;;;;;;;1003.13;891.35;;;;;;;23.80;51.62;96700.09;2072804;28;20241;-62
2023/07/18 12:08:37;;;;;;;1006.60;897.92;;;;;;;23.99;51.05;96699.16;2073791;28;20244;-62
2023/07/18 12:09:39;;;;;;;2250.00;999.90;;;;;;;23.93;50.77;96702.44;2072557;28;20194;-62
2023/07/18 12:10:40;;;;;;;934.90;762.85;;;;;;;23.81;51.30;96691.13;2074159;28;20263;-62
2023/07/18 12:11:46;;;;;;;1077.25;966.45;;;;;;;23.77;52.03;96682.59;2074163;28;20259;-62
2023/07/18 12:12:47;;;;;;;1563.05;907.75;;;;;;;23.75;51.79;96665.06;2072537;28;20691;-62
2023/07/18 12:13:49;;;;;;;816.78;659.53;;;;;;;23.82;51.62;96676.81;2074993;28;20212;-62
2023/07/18 12:14:51;;;;;;;1007.75;904.35;;;;;;;23.93;51.61;96678.44;2070657;28;20253;-62
2023/07/18 12:15:53;;;;;;;1102.90;990.53;;;;;;;23.94;51.38;96686.28;2070645;28;20231;-62
2023/07/18 12:16:54;;;;;;;1019.75;915.03;;;;;;;24.01;51.45;96667.88;2073765;28;20197;-62
2023/07/18 12:17:57;;;;;;;935.17;844.97;;;;;;;24.16;51.80;96662.81;2073332;28;20271;-62
2023/07/18 12:18:58;;;;;;;1031.30;793.67;;;;;;;23.89;51.88;96653.88;2073557;28;20208;-62
2023/07/18 12:20:00;;;;;;;966.30;868.70;;;;;;;24.15;51.69;96649.63;2073055;28;20198;-62
2023/07/18 12:21:01;;;;;;;896.17;780.53;;;;;;;24.27;51.85;96659.06;2072612;28;20212;-60
2023/07/18 12:22:03;;;;;;;1044.93;942.53;;;;;;;24.24;51.63;96646.03;2070547;28;20248;-61
2023/07/18 12:23:04;;;;;;;1052.57;958.30;;;;;;;24.33;51.80;96660.28;2073611;28;20222;-60
2023/07/18 12:24:06;;;;;;;982.67;889.63;;;;;;;24.38;51.83;96664.16;2070736;28;20205;-60
2023/07/18 12:25:08;;;;;;;1122.88;999.90;;;;;;;24.38;51.26;96655.31;2070766;28;20293;-60
2023/07/18 12:26:10;;;;;;;1013.90;918.03;;;;;;;24.68;51.19;96646.06;2074493;28;20767;-60
2023/07/18 12:27:12;;;;;;;1117.15;999.90;;;;;;;24.50;51.56;96653.25;2073945;28;20634;-60
2023/07/18 12:28:14;;;;;;;1065.47;961.03;;;;;;;24.60;51.29;96672.66;2074252;28;20198;-59
2023/07/18 12:29:16;;;;;;;957.35;860.67;;;;;;;24.91;51.12;96659.72;2074003;28;20198;-60
2023/07/18 12:30:18;;;;;;;1078.70;972.13;;;;;;;25.02;50.78;96673.81;2073966;28;20223;-59
2023/07/18 12:31:20;;;;;;;1029.90;924.35;;;;;;;24.96;50.59;96672.59;2073004;28;20627;-60
2023/07/18 12:32:22;;;;;;;951.60;851.10;;;;;;;24.90;50.31;96668.72;2071853;28;20691;-59
2023/07/18 12:33:29;;;;;;;1078.68;963.70;;;;;;;25.25;49.92;96666.91;2075040;28;20206;-59
2023/07/18 12:34:31;;;;;;;1430.45;690.75;;;;;;;25.32;49.35;96663.56;2070547;28;20198;-59
2023/07/18 12:35:32;;;;;;;1525.85;835.70;;;;;;;25.37;48.88;96674.66;2071514;28;20297;-59
2023/07/18 12:36:33;;;;;;;1532.95;792.70;;;;;;;25.27;49.25;96680.94;2074628;28;20747;-59
2023/07/18 12:37:35;;;;;;;2250.00;999.90;;;;;;;25.38;48.48;96671.84;2073472;28;20226;-59
2023/07/18 12:38:36;;;;;;;2250.00;999.90;;;;;;;25.31;48.66;96670.75;2073069;28;20820;-59
2023/07/18 12:39:39;;;;;;;680.92;612.90;;;;;;;25.07;49.10;96669.66;2074330;28;20195;-59
2023/07/18 12:40:41;;;;;;;1452.70;746.13;;;;;;;25.46;49.32;96679.03;2070525;28;20209;-59
2023/07/18 12:41:42;;;;;;;1110.95;978.35;;;;;;;25.77;49.18;96689.16;2074162;28;20196;-59
2023/07/18 12:42:44;;;;;;;1423.72;788.65;;;;;;;25.97;47.87;96688.88;2071608;28;20338;-59
2023/07/18 12:43:46;;;;;;;1538.90;872.20;;;;;;;26.16;47.96;96690.44;2070241;28;20248;-59
2023/07/18 12:44:51;;;;;;;1590.93;909.10;;;;;;;26.21;48.23;96688.94;2070533;28;20290;-59
2023/07/18 12:45:53;;;;;;;775.42;707.03;;;;;;;26.50;47.14;96695.66;2071541;28;20197;-59
2023/07/18 12:46:55;;;;;;;1500.68;863.08;;;;;;;26.55;47.13;96692.44;2070282;28;20201;-59
2023/07/18 12:47:57;;;;;;;598.65;542.67;;;;;;;26.47;46.99;96695.97;2070939;28;20237;-59
2023/07/18 12:48:58;;;;;;;639.33;580.53;;;;;;;26.68;46.83;96687.44;2070395;28;20194;-59
2023/07/18 12:50:06;;;;;;;404.95;362.10;;;;;;;26.49;46.87;96683.25;2074783;28;20236;-59
2023/07/18 12:51:08;;;;;;;555.33;502.77;;;;;;;26.72;47.26;96683.41;2075643;28;20228;-59
2023/07/18 12:52:09;;;;;;;565.83;513.15;;;;;;;26.76;46.88;96686.59;2073041;28;20198;-59
2023/07/18 12:53:11;;;;;;;500.50;452.45;;;;;;;26.67;47.34;96684.94;2073145;28;20285;-59
2023/07/18 12:54:12;;;;;;;692.83;629.80;;;;;;;26.73;47.08;96677.06;2073701;28;20205;-59
2023/07/18 12:55:14;;;;;;;506.95;458.85;;;;;;;26.59;47.22;96668.84;2071084;28;20235;-59
2023/07/18 12:56:16;;;;;;;622.53;565.88;;;;;;;26.42;48.09;96668.88;2069211;28;20327;-58
2023/07/18 12:57:18;;;;;;;409.23;367.55;;;;;;;26.39;47.56;96661.19;2068655;28;20205;-58
2023/07/18 12:58:20;;;;;;;669.20;609.13;;;;;;;26.26;48.39;96652.81;2069558;28;20288;-58
2023/07/18 12:59:22;;;;;;;491.85;444.63;;;;;;;26.11;48.45;96656.16;2064912;28;20302;-59
2023/07/18 13:00:23;;;;;;;484.38;436.98;;;;;;;25.96;47.71;96642.56;2066196;28;20843;-62
2023/07/18 13:01:25;;;;;;;586.13;531.65;;;;;;;25.70;48.05;96656.03;2067984;28;20638;-60
2023/07/18 13:02:27;;;;;;;495.35;447.83;;;;;;;25.65;48.21;96648.53;2066143;28;20206;-59
2023/07/18 13:03:29;;;;;;;469.23;422.90;;;;;;;25.65;48.08;96653.88;2066454;28;20752;-59
2023/07/18 13:04:34;;;;;;;740.08;671.40;;;;;;;25.75;48.26;96657.25;2067931;28;20205;-59
2023/07/18 13:05:35;;;;;;;581.70;527.08;;;;;;;25.65;48.64;96653.88;2067361;28;20197;-60
2023/07/18 13:06:37;;;;;;;506.38;456.75;;;;;;;25.53;48.50;96657.84;2068879;28;20194;-60
2023/07/18 13:07:38;;;;;;;476.45;429.50;;;;;;;25.45;48.71;96650.63;2068692;28;20257;-60
2023/07/18 13:08:40;;;;;;;738.47;668.63;;;;;;;25.48;48.73;96655.66;2069003;28;20634;-61
2023/07/18 13:09:42;;;;;;;1547.10;904.85;;;;;;;25.48;48.97;96644.97;2067460;28;20203;-61
2023/07/18 13:10:44;;;;;;;764.88;691.58;;;;;;;25.47;49.12;96637.97;2067585;28;20224;-61
2023/07/18 13:11:46;;;;;;;2250.00;999.90;;;;;;;25.45;48.99;96634.59;2065964;28;20229;-60
2023/07/18 13:12:47;;;;;;;593.70;535.92;;;;;;;25.42;48.51;96642.97;2065274;28;20309;-61
2023/07/18 13:13:49;;;;;;;852.38;773.05;;;;;;;25.41;48.70;96644.78;2066385;28;20195;-61
2023/07/18 13:14:50;;;;;;;556.55;504.60;;;;;;;25.23;48.38;96639.50;2066380;28;20571;-60
2023/07/18 13:15:52;;;;;;;435.05;391.98;;;;;;;25.33;48.20;96633.19;2067276;28;20198;-61
2023/07/18 13:16:53;;;;;;;2250.00;999.90;;;;;;;25.62;48.92;96627.47;2068778;28;20293;-61
2023/07/18 13:17:55;;;;;;;491.02;443.90;;;;;;;25.88;47.47;96631.88;2068791;28;20708;-60
2023/07/18 13:18:56;;;;;;;548.35;496.27;;;;;;;26.35;47.36;96630.41;2067888;28;20225;-60
2023/07/18 13:19:59;;;;;;;2250.00;999.90;;;;;;;26.84;47.19;96619.66;2068166;28;20194;-59
2023/07/18 13:21:00;;;;;;;562.60;510.70;;;;;;;26.93;46.35;96628.50;2067045;28;20221;-60
2023/07/18 13:22:01;;;;;;;480.92;434.20;;;;;;;26.98;45.89;96633.31;2068918;28;20522;-59
2023/07/18 13:23:03;;;;;;;711.63;650.28;;;;;;;26.93;45.73;96627.66;2068823;28;20233;-60
2023/07/18 13:24:05;;;;;;;514.53;463.67;;;;;;;27.19;45.25;96624.72;2068444;28;20634;-61
2023/07/18 13:25:07;;;;;;;455.90;408.77;;;;;;;27.07;45.58;96626.97;2068367;28;20210;-60
2023/07/18 13:26:11;;;;;;;449.55;403.55;;;;;;;27.23;45.70;96634.06;2068155;28;20898;-60
2023/07/18 13:27:12;;;;;;;523.80;474.13;;;;;;;27.18;45.61;96633.75;2067835;28;20209;-61
2023/07/18 13:28:15;;;;;;;564.30;512.15;;;;;;;27.34;45.62;96639.06;2069069;28;20202;-60
2023/07/18 13:29:16;;;;;;;441.50;394.60;;;;;;;27.38;45.11;96634.19;2068789;28;20202;-61
2023/07/18 13:30:18;;;;;;;606.65;549.47;;;;;;;27.23;45.71;96633.25;2068550;28;20201;-60
2023/07/18 13:31:20;;;;;;;553.97;499.73;;;;;;;27.18;45.51;96642.63;2069048;28;20190;-60
2023/07/18 13:32:21;;;;;;;651.08;592.22;;;;;;;27.21;45.60;96646.81;2070523;28;20796;-61
2023/07/18 13:33:23;;;;;;;712.25;648.75;;;;;;;27.25;45.66;96641.94;2065799;28;20194;-60
2023/07/18 13:34:24;;;;;;;589.45;532.65;;;;;;;27.28;45.35;96638.94;2070581;28;20206;-61
2023/07/18 13:35:26;;;;;;;635.42;578.33;;;;;;;27.38;46.05;96635.00;2068041;28;20220;-61
2023/07/18 13:36:28;;;;;;;612.05;556.50;;;;;;;28.06;44.77;96631.00;2067929;28;20195;-60
2023/07/18 13:37:30;;;;;;;558.42;507.17;;;;;;;28.12;44.91;96632.94;2064204;28;20225;-61
2023/07/18 13:38:32;;;;;;;488.70;440.27;;;;;;;28.13;44.66;96632.78;2064465;28;20277;-60
2023/07/18 13:39:33;;;;;;;399.27;356.58;;;;;;;28.32;44.16;96633.31;2067664;28;20772;-61
2023/07/18 13:40:35;;;;;;;445.40;400.83;;;;;;;28.49;44.11;96629.47;2064678;28;20589;-60
2023/07/18 13:41:37;;;;;;;506.00;459.00;;;;;;;28.72;42.91;96633.97;2064723;28;20194;-60
2023/07/18 13:42:38;;;;;;;420.67;377.20;;;;;;;28.81;43.44;96632.00;2066952;28;20384;-61
2023/07/18 13:43:42;;;;;;;546.72;494.25;;;;;;;28.92;43.43;96634.25;2068908;28;20591;-60
2023/07/18 13:44:43;;;;;;;387.33;345.85;;;;;;;29.21;43.73;96632.56;2068589;28;20198;-61
2023/07/18 13:45:45;;;;;;;487.40;440.33;;;;;;;29.67;42.88;96636.06;2068854;28;20205;-61
2023/07/18 13:46:46;;;;;;;1797.57;884.72;;;;;;;29.52;42.06;96630.72;2068456;28;20293;-61
2023/07/18 13:47:48;;;;;;;2250.00;999.90;;;;;;;28.99;42.97;96634.38;2067924;28;20607;-61
2023/07/18 13:48:49;;;;;;;2250.00;999.90;;;;;;;29.64;42.39;96624.66;2069585;28;20194;-61
2023/07/18 13:49:51;;;;;;;2250.00;999.90;;;;;;;29.52;42.34;96628.03;2064839;28;20581;-63
2023/07/18 13:50:53;;;;;;;466.57;421.53;;;;;;;29.09;43.45;96620.63;2065199;28;20811;-62
2023/07/18 13:51:54;;;;;;;654.60;596.87;;;;;;;28.60;44.37;96630.84;2066942;28;20444;-61
2023/07/18 13:52:56;;;;;;;604.60;550.42;;;;;;;28.27;44.77;96627.66;2068483;28;20463;-61
2023/07/18 13:53:58;;;;;;;517.00;467.95;;;;;;;27.73;45.39;96640.06;2067512;28;20724;-60
2023/07/18 13:54:59;;;;;;;577.37;523.17;;;;;;;27.16;46.22;96644.66;2065897;28;20197;-60
2023/07/18 13:56:01;;;;;;;2266.67;999.90;;;;;;;26.93;46.62;96636.53;2065495;28;20490;-60
2023/07/18 13:57:04;;;;;;;2250.00;999.90;;;;;;;26.62;47.39;96639.09;2069672;28;20489;-61
2023/07/18 13:58:05;;;;;;;2250.00;999.90;;;;;;;26.46;47.34;96648.81;2067393;28;20217;-60
2023/07/18 13:59:07;;;;;;;2250.00;999.90;;;;;;;26.34;48.11;96650.16;2064585;28;20213;-61
2023/07/18 14:00:09;;;;;;;2250.00;999.90;;;;;;;26.58;48.08;96635.91;2066990;28;20199;-60
2023/07/18 14:01:11;;;;;;;2250.00;999.90;;;;;;;26.23;47.83;96636.09;2069152;28;20209;-60
2023/07/18 14:02:13;;;;;;;2250.00;999.90;;;;;;;26.43;48.39;96638.41;2069089;28;20202;-60
2023/07/18 14:03:15;;;;;;;2250.00;999.90;;;;;;;26.29;47.94;96634.56;2069447;28;20225;-60
2023/07/18 14:04:34;;;;;;;2250.00;999.90;;;;;;;26.19;48.69;96632.06;2068258;28;20567;-60
2023/07/18 14:05:35;;;;;;;2250.00;999.90;;;;;;;26.17;48.71;96627.88;2068597;28;20650;-59
2023/07/18 14:06:37;;;;;;;2250.00;999.90;;;;;;;26.04;48.92;96623.00;2068513;28;20233;-62
2023/07/18 14:07:39;;;;;;;2250.00;999.90;;;;;;;26.21;48.87;96629.25;2066577;28;20362;-62
2023/07/18 14:08:40;;;;;;;2250.00;999.90;;;;;;;26.28;48.27;96634.75;2067660;28;20708;-61
2023/07/18 14:09:42;;;;;;;2250.00;999.90;;;;;;;26.32;48.63;96630.72;2067605;28;20240;-60
2023/07/18 14:10:43;;;;;;;2250.00;999.90;;;;;;;26.32;48.55;96628.06;2064480;28;20195;-61
2023/07/18 14:11:46;;;;;;;2250.00;999.90;;;;;;;26.29;48.64;96620.38;2065260;28;20199;-62
2023/07/18 14:12:48;;;;;;;2250.00;999.90;;;;;;;26.15;48.55;96621.88;2066912;28;20225;-61
2023/07/18 14:13:49;;;;;;;2250.00;999.90;;;;;;;25.89;48.81;96618.31;2067741;28;20213;-61
2023/07/18 14:14:51;;;;;;;2250.00;999.90;;;;;;;25.84;49.15;96619.81;2068759;28;20672;-61
2023/07/18 14:15:52;;;;;;;2250.00;999.90;;;;;;;26.18;49.39;96616.19;2068001;28;20205;-62
2023/07/18 14:16:54;;;;;;;2250.00;999.90;;;;;;;26.28;48.73;96629.41;2065530;28;20236;-61
2023/07/18 14:17:55;;;;;;;2250.00;999.90;;;;;;;26.52;48.95;96618.66;2064827;28;20233;-62
2023/07/18 14:18:58;;;;;;;2250.00;999.90;;;;;;;26.57;49.00;96620.84;2068243;28;20201;-61
2023/07/18 14:19:59;;;;;;;2250.00;999.90;;;;;;;26.63;48.47;96622.00;2067110;28;20260;-61
2023/07/18 14:21:01;;;;;;;2250.00;999.90;;;;;;;26.59;49.23;96615.31;2067918;28;20225;-61
2023/07/18 14:22:02;;;;;;;2250.00;999.90;;;;;;;26.45;48.44;96627.53;2067328;28;20223;-62
2023/07/18 14:23:04;;;;;;;2250.00;999.90;;;;;;;26.14;49.29;96622.88;2066825;28;20725;-63
2023/07/18 14:24:06;;;;;;;2250.00;999.90;;;;;;;26.06;49.23;96618.38;2064493;28;20206;-63
2023/07/18 14:25:07;;;;;;;2250.00;999.90;;;;;;;25.92;49.24;96609.13;2067767;28;20198;-63
2023/07/18 14:26:09;;;;;;;2250.00;999.90;;;;;;;25.93;49.41;96616.16;2067155;28;20618;-62
2023/07/18 14:27:12;;;;;;;2250.00;999.90;;;;;;;25.94;49.37;96622.34;2064677;28;20205;-61
2023/07/18 14:28:14;;;;;;;2250.00;999.90;;;;;;;25.86;49.13;96615.97;2065851;28;20228;-62
2023/07/18 14:29:16;;;;;;;2250.00;999.90;;;;;;;25.90;49.42;96613.78;2067050;28;20324;-63
2023/07/18 14:30:18;;;;;;;2250.00;999.90;;;;;;;25.92;49.47;96614.47;2068956;28;20348;-62